createdAt,value
2022-11-04T00:00:03.885Z,47.64
2022-11-04T00:01:03.863Z,49.28
2022-11-04T00:02:03.839Z,46.84
2022-11-04T00:03:03.790Z,48.06
2022-11-04T00:04:03.742Z,48.32
2022-11-04T00:05:03.743Z,53.08
2022-11-04T00:06:03.743Z,52.70
2022-11-04T00:07:03.713Z,48.32
2022-11-04T00:08:03.708Z,46.08
2022-11-04T00:09:03.687Z,57.52
2022-11-04T00:10:03.793Z,45.65
2022-11-04T00:11:03.675Z,47.87
2022-11-04T00:12:03.763Z,48.46
2022-11-04T00:13:03.726Z,49.44
2022-11-04T00:14:03.937Z,52.83
2022-11-04T00:15:03.788Z,47.44
2022-11-04T00:16:03.636Z,44.91
2022-11-04T00:17:03.612Z,47.72
2022-11-04T00:18:03.628Z,47.67
2022-11-04T00:19:03.656Z,48.78
2022-11-04T00:20:03.762Z,44.65
2022-11-04T00:21:03.577Z,44.81
2022-11-04T00:22:03.586Z,49.32
2022-11-04T00:23:03.584Z,44.32
2022-11-04T00:24:03.551Z,53.02
2022-11-04T00:25:03.563Z,49.71
2022-11-04T00:26:03.563Z,45.24
2022-11-04T00:27:03.515Z,54.63
2022-11-04T00:28:03.555Z,52.94
2022-11-04T00:29:03.489Z,53.53
2022-11-04T00:30:03.615Z,45.94
2022-11-04T00:31:03.477Z,53.22
2022-11-04T00:32:03.566Z,48.57
2022-11-04T00:33:03.496Z,42.94
2022-11-04T00:34:03.460Z,48.25
2022-11-04T00:35:03.432Z,63.74
2022-11-04T00:36:03.508Z,50.29
2022-11-04T00:37:03.438Z,45.92
2022-11-04T00:38:03.413Z,55.27
2022-11-04T00:39:03.409Z,61.63
2022-11-04T00:40:03.380Z,57.64
2022-11-04T00:41:03.366Z,48.15
2022-11-04T00:42:03.381Z,60.86
2022-11-04T00:43:03.358Z,48.48
2022-11-04T00:44:03.415Z,48.98
2022-11-04T00:45:03.330Z,62.03
2022-11-04T00:46:03.322Z,51.73
2022-11-04T00:47:03.351Z,50.17
2022-11-04T00:48:03.316Z,42.98
2022-11-04T00:49:03.316Z,49.62
2022-11-04T00:50:03.296Z,44.99
2022-11-04T00:51:03.324Z,47.47
2022-11-04T00:52:03.331Z,62.93
2022-11-04T00:53:03.266Z,48.74
2022-11-04T00:54:03.247Z,49.77
2022-11-04T00:55:03.236Z,45.06
2022-11-04T00:56:03.246Z,48.54
2022-11-04T00:57:03.246Z,44.54
2022-11-04T00:58:03.224Z,42.51
2022-11-04T00:59:03.216Z,51.62
2022-11-04T01:00:03.190Z,55.60
2022-11-04T01:01:03.251Z,46.89
2022-11-04T01:02:03.352Z,45.12
2022-11-04T01:03:03.238Z,43.08
2022-11-04T01:04:03.155Z,46.21
2022-11-04T01:05:03.129Z,60.34
2022-11-04T01:06:03.286Z,49.83
2022-11-04T01:07:03.139Z,48.56
2022-11-04T01:08:03.165Z,50.81
2022-11-04T01:09:03.110Z,47.46
2022-11-04T01:10:03.103Z,45.52
2022-11-04T01:11:03.073Z,43.53
2022-11-04T01:12:03.087Z,44.76
2022-11-04T01:13:03.072Z,62.62
2022-11-04T01:14:03.101Z,51.16
2022-11-04T01:15:03.095Z,50.62
2022-11-04T01:16:03.030Z,63.63
2022-11-04T01:17:03.021Z,53.76
2022-11-04T01:18:03.033Z,46.10
2022-11-04T01:19:02.999Z,42.68
2022-11-04T01:20:03.087Z,59.91
2022-11-04T01:21:02.977Z,49.17
2022-11-04T01:22:02.995Z,45.99
2022-11-04T01:23:02.970Z,43.35
2022-11-04T01:24:03.013Z,55.08
2022-11-04T01:25:02.988Z,57.81
2022-11-04T01:26:02.933Z,54.62
2022-11-04T01:27:02.935Z,44.37
2022-11-04T01:28:02.905Z,50.98
2022-11-04T01:29:02.917Z,45.69
2022-11-04T01:30:02.941Z,48.21
2022-11-04T01:31:02.880Z,46.33
2022-11-04T01:32:02.885Z,42.38
2022-11-04T01:33:02.857Z,45.90
2022-11-04T01:34:02.848Z,48.86
2022-11-04T01:35:02.843Z,52.13
2022-11-04T01:36:02.827Z,47.31
2022-11-04T01:37:02.853Z,47.98
2022-11-04T01:38:02.813Z,47.67
2022-11-04T01:39:02.842Z,47.54
2022-11-04T01:40:02.793Z,50.73
2022-11-04T01:41:02.804Z,42.20
2022-11-04T01:43:02.779Z,44.74
2022-11-04T01:44:02.763Z,45.85
2022-11-04T01:45:02.733Z,51.28
2022-11-04T01:46:02.723Z,57.36
2022-11-04T01:47:02.724Z,55.79
2022-11-04T01:48:02.729Z,65.05
2022-11-04T01:49:02.723Z,45.69
2022-11-04T01:50:02.685Z,47.80
2022-11-04T01:51:02.666Z,47.96
2022-11-04T01:52:02.687Z,49.81
2022-11-04T01:53:02.657Z,47.92
2022-11-04T01:54:02.665Z,44.63
2022-11-04T01:55:02.673Z,51.18
2022-11-04T01:56:02.646Z,49.83
2022-11-04T01:57:02.622Z,42.75
2022-11-04T01:58:02.602Z,53.55
2022-11-04T01:59:02.596Z,45.86
2022-11-04T02:00:02.599Z,46.30
2022-11-04T02:01:02.695Z,43.83
2022-11-04T02:02:02.660Z,47.37
2022-11-04T02:03:02.568Z,54.21
2022-11-04T02:04:02.551Z,52.68
2022-11-04T02:05:02.543Z,52.96
2022-11-04T02:06:02.573Z,51.15
2022-11-04T02:07:02.555Z,50.83
2022-11-04T02:08:02.553Z,45.42
2022-11-04T02:09:02.528Z,50.39
2022-11-04T02:10:02.489Z,60.51
2022-11-04T02:11:02.483Z,64.27
2022-11-04T02:12:02.555Z,52.48
2022-11-04T02:13:02.454Z,50.05
2022-11-04T02:14:02.439Z,58.99
2022-11-04T02:15:02.479Z,47.70
2022-11-04T02:16:02.450Z,46.77
2022-11-04T02:17:02.545Z,54.31
2022-11-04T02:18:02.478Z,51.89
2022-11-04T02:19:02.392Z,47.91
2022-11-04T02:20:02.395Z,43.26
2022-11-04T02:21:02.384Z,47.35
2022-11-04T02:22:02.372Z,46.60
2022-11-04T02:23:02.375Z,45.71
2022-11-04T02:24:02.345Z,54.94
2022-11-04T02:25:02.352Z,58.07
2022-11-04T02:26:02.323Z,50.12
2022-11-04T02:27:02.308Z,52.40
2022-11-04T02:28:02.331Z,51.58
2022-11-04T02:29:02.321Z,45.16
2022-11-04T02:30:02.283Z,57.98
2022-11-04T02:31:34.174Z,44.61
2022-11-04T02:32:02.247Z,46.75
2022-11-04T02:33:02.233Z,43.97
2022-11-04T02:34:02.251Z,58.34
2022-11-04T02:35:02.273Z,51.04
2022-11-04T02:36:02.228Z,46.86
2022-11-04T02:37:02.206Z,45.11
2022-11-04T02:38:02.203Z,44.96
2022-11-04T02:39:02.186Z,52.70
2022-11-04T02:40:02.195Z,46.75
2022-11-04T02:41:02.280Z,48.03
2022-11-04T02:42:02.176Z,65.80
2022-11-04T02:43:02.164Z,45.77
2022-11-04T02:44:02.139Z,44.88
2022-11-04T02:45:02.154Z,47.40
2022-11-04T02:46:02.134Z,45.68
2022-11-04T02:47:02.130Z,44.75
2022-11-04T02:48:02.106Z,45.08
2022-11-04T02:49:02.087Z,44.53
2022-11-04T02:50:02.094Z,48.47
2022-11-04T02:51:02.065Z,42.64
2022-11-04T02:52:02.076Z,48.01
2022-11-04T02:53:02.042Z,50.63
2022-11-04T02:54:02.049Z,45.88
2022-11-04T02:55:02.025Z,47.89
2022-11-04T02:56:02.100Z,58.51
2022-11-04T02:57:02.005Z,47.15
2022-11-04T02:58:02.020Z,48.01
2022-11-04T02:59:02.003Z,49.22
2022-11-04T03:00:01.974Z,60.17
2022-11-04T03:01:02.040Z,47.09
2022-11-04T03:02:02.026Z,45.45
2022-11-04T03:03:02.001Z,46.47
2022-11-04T03:04:01.994Z,45.56
2022-11-04T03:05:01.923Z,42.41
2022-11-04T03:06:01.919Z,45.86
2022-11-04T03:07:02.044Z,46.47
2022-11-04T03:08:01.892Z,51.84
2022-11-04T03:09:01.905Z,41.90
2022-11-04T03:10:01.891Z,41.86
2022-11-04T03:11:01.861Z,48.65
2022-11-04T03:12:01.866Z,56.61
2022-11-04T03:13:01.846Z,60.55
2022-11-04T03:14:01.837Z,45.69
2022-11-04T03:15:01.857Z,44.43
2022-11-04T03:16:01.824Z,41.58
2022-11-04T03:17:01.810Z,47.76
2022-11-04T03:18:01.826Z,46.24
2022-11-04T03:19:01.788Z,47.58
2022-11-04T03:20:01.777Z,49.17
2022-11-04T03:21:01.784Z,47.98
2022-11-04T03:22:01.743Z,53.81
2022-11-04T03:23:01.738Z,47.98
2022-11-04T03:24:01.740Z,49.34
2022-11-04T03:25:01.748Z,46.99
2022-11-04T03:26:01.712Z,49.08
2022-11-04T03:27:01.696Z,47.65
2022-11-04T03:28:01.714Z,44.21
2022-11-04T03:29:01.684Z,49.39
2022-11-04T03:30:01.731Z,49.63
2022-11-04T03:31:01.658Z,56.32
2022-11-04T03:32:01.744Z,60.74
2022-11-04T03:33:01.633Z,51.79
2022-11-04T03:34:01.637Z,43.26
2022-11-04T03:35:01.644Z,50.58
2022-11-04T03:36:01.599Z,50.60
2022-11-04T03:37:01.594Z,50.58
2022-11-04T03:38:01.589Z,45.87
2022-11-04T03:39:01.596Z,51.55
2022-11-04T03:40:01.578Z,52.64
2022-11-04T03:41:01.585Z,50.75
2022-11-04T03:42:01.559Z,48.59
2022-11-04T03:43:01.569Z,49.81
2022-11-04T03:44:01.535Z,48.03
2022-11-04T03:45:01.562Z,52.64
2022-11-04T03:46:01.505Z,51.64
2022-11-04T03:47:01.510Z,48.30
2022-11-04T03:48:01.515Z,48.73
2022-11-04T03:49:01.506Z,51.50
2022-11-04T03:50:01.524Z,52.37
2022-11-04T03:51:01.483Z,50.61
2022-11-04T03:52:01.518Z,48.58
2022-11-04T03:53:01.447Z,49.15
2022-11-04T03:54:01.498Z,49.55
2022-11-04T03:55:01.439Z,51.95
2022-11-04T03:56:01.418Z,53.04
2022-11-04T03:57:01.405Z,51.05
2022-11-04T03:58:01.396Z,53.28
2022-11-04T03:59:01.405Z,50.67
2022-11-04T04:00:01.428Z,56.85
2022-11-04T04:01:01.417Z,60.67
2022-11-04T04:02:01.433Z,51.50
2022-11-04T04:03:01.380Z,54.89
2022-11-04T04:04:01.385Z,51.93
2022-11-04T04:05:01.320Z,53.83
2022-11-04T04:06:01.314Z,55.00
2022-11-04T04:07:01.302Z,53.67
2022-11-04T04:08:01.317Z,51.44
2022-11-04T04:09:01.288Z,61.35
2022-11-04T04:10:01.300Z,59.07
2022-11-04T04:11:01.304Z,51.78
2022-11-04T04:12:01.257Z,51.53
2022-11-04T04:13:01.275Z,51.62
2022-11-04T04:14:01.233Z,59.47
2022-11-04T04:15:01.229Z,58.00
2022-11-04T04:16:01.244Z,53.17
2022-11-04T04:17:01.239Z,53.55
2022-11-04T04:18:01.200Z,52.26
2022-11-04T04:19:01.194Z,53.36
2022-11-04T04:20:01.174Z,54.47
2022-11-04T04:21:01.167Z,52.22
2022-11-04T04:22:01.170Z,53.75
2022-11-04T04:23:01.168Z,54.65
2022-11-04T04:24:01.177Z,55.64
2022-11-04T04:25:01.137Z,52.03
2022-11-04T04:26:01.123Z,55.61
2022-11-04T04:27:01.098Z,52.45
2022-11-04T04:28:01.097Z,54.23
2022-11-04T04:29:01.084Z,53.53
2022-11-04T04:30:01.093Z,54.87
2022-11-04T04:31:01.112Z,55.26
2022-11-04T04:32:01.106Z,52.24
2022-11-04T04:33:01.063Z,54.72
2022-11-04T04:34:01.040Z,52.68
2022-11-04T04:35:01.045Z,55.19
2022-11-04T04:36:01.059Z,57.03
2022-11-04T04:37:01.003Z,63.36
2022-11-04T04:38:00.996Z,57.38
2022-11-04T04:39:00.989Z,56.35
2022-11-04T04:40:01.002Z,54.69
2022-11-04T04:41:01.003Z,54.80
2022-11-04T04:42:01.020Z,63.51
2022-11-04T04:43:00.939Z,58.75
2022-11-04T04:44:00.938Z,56.90
2022-11-04T04:45:00.909Z,64.82
2022-11-04T04:46:00.979Z,57.25
2022-11-04T04:47:01.954Z,57.33
2022-11-04T04:48:00.900Z,54.41
2022-11-04T04:49:00.888Z,56.35
2022-11-04T04:50:00.882Z,55.86
2022-11-04T04:51:00.872Z,54.76
2022-11-04T04:52:00.870Z,53.18
2022-11-04T04:53:00.864Z,53.46
2022-11-04T04:54:00.833Z,65.87
2022-11-04T04:55:00.821Z,57.86
2022-11-04T04:56:00.839Z,56.60
2022-11-04T04:57:00.809Z,55.94
2022-11-04T04:58:00.773Z,62.59
2022-11-04T04:59:00.788Z,55.05
2022-11-04T05:00:00.790Z,55.67
2022-11-04T05:01:00.845Z,55.68
2022-11-04T05:02:00.880Z,55.61
2022-11-04T05:03:00.744Z,57.97
2022-11-04T05:04:00.725Z,55.97
2022-11-04T05:05:00.771Z,55.50
2022-11-04T05:06:00.732Z,55.01
2022-11-04T05:07:00.715Z,54.48
2022-11-04T05:08:00.690Z,56.51
2022-11-04T05:09:00.690Z,57.53
2022-11-04T05:10:00.680Z,55.85
2022-11-04T05:11:00.660Z,64.31
2022-11-04T05:12:00.674Z,57.43
2022-11-04T05:13:00.665Z,58.47
2022-11-04T05:14:00.633Z,63.87
2022-11-04T05:15:00.608Z,58.12
2022-11-04T05:16:01.627Z,54.51
2022-11-04T05:17:00.633Z,54.52
2022-11-04T05:18:00.623Z,58.47
2022-11-04T05:19:00.613Z,57.87
2022-11-04T05:20:00.578Z,59.39
2022-11-04T05:21:00.595Z,58.13
2022-11-04T05:22:00.596Z,58.88
2022-11-04T05:23:00.557Z,58.49
2022-11-04T05:24:00.530Z,55.81
2022-11-04T05:25:00.526Z,63.60
2022-11-04T05:26:00.541Z,64.00
2022-11-04T05:27:00.509Z,60.19
2022-11-04T05:28:00.529Z,58.34
2022-11-04T05:29:00.585Z,58.57
2022-11-04T05:30:00.509Z,59.34
2022-11-04T05:31:00.471Z,56.75
2022-11-04T05:32:00.463Z,59.57
2022-11-04T05:33:04.631Z,64.64
2022-11-04T05:34:00.435Z,55.31
2022-11-04T05:35:00.444Z,56.88
2022-11-04T05:36:00.422Z,59.58
2022-11-04T05:37:00.406Z,57.19
2022-11-04T05:38:00.407Z,56.77
2022-11-04T05:39:00.380Z,57.33
2022-11-04T05:40:00.394Z,57.95
2022-11-04T05:41:00.453Z,56.89
2022-11-04T05:42:00.358Z,60.43
2022-11-04T05:43:00.364Z,59.61
2022-11-04T05:44:00.393Z,58.50
2022-11-04T05:45:00.331Z,56.98
2022-11-04T05:46:00.322Z,59.15
2022-11-04T05:47:00.321Z,56.32
2022-11-04T05:48:00.296Z,64.55
2022-11-04T05:49:00.305Z,58.26
2022-11-04T05:50:01.283Z,58.46
2022-11-04T05:51:00.285Z,56.66
2022-11-04T05:52:00.292Z,58.45
2022-11-04T05:53:00.396Z,56.76
2022-11-04T05:54:00.260Z,58.05
2022-11-04T05:55:00.290Z,58.12
2022-11-04T05:56:00.224Z,64.68
2022-11-04T05:57:00.209Z,59.46
2022-11-04T05:58:00.203Z,58.59
2022-11-04T05:59:00.207Z,64.77
2022-11-04T06:00:00.224Z,55.36
2022-11-04T06:01:00.167Z,57.51
2022-11-04T06:02:00.328Z,59.08
2022-11-04T06:03:00.275Z,58.02
2022-11-04T06:04:00.186Z,65.47
2022-11-04T06:05:00.159Z,58.96
2022-11-04T06:06:00.157Z,60.06
2022-11-04T06:07:00.104Z,60.11
2022-11-04T06:08:00.116Z,58.62
2022-11-04T06:09:00.103Z,59.31
2022-11-04T06:10:00.090Z,57.73
2022-11-04T06:11:00.075Z,66.22
2022-11-04T06:12:00.206Z,59.38
2022-11-04T06:13:00.100Z,64.52
2022-11-04T06:14:00.036Z,59.97
2022-11-04T06:15:00.035Z,57.42
2022-11-04T06:16:00.056Z,59.08
2022-11-04T06:17:00.120Z,58.33
2022-11-04T06:18:00.023Z,62.09
2022-11-04T06:19:03.550Z,57.19
2022-11-04T06:20:00.986Z,60.00
2022-11-04T06:20:59.979Z,58.24
2022-11-04T06:22:00.042Z,62.89
2022-11-04T06:22:59.948Z,60.57
2022-11-04T06:23:59.959Z,60.74
2022-11-04T06:24:59.932Z,60.51
2022-11-04T06:25:59.916Z,58.36
2022-11-04T06:26:59.909Z,59.67
2022-11-04T06:27:59.904Z,58.94
2022-11-04T06:28:59.912Z,59.88
2022-11-04T06:29:59.887Z,66.48
2022-11-04T06:30:59.907Z,60.85
2022-11-04T06:31:59.856Z,66.83
2022-11-04T06:32:59.846Z,61.23
2022-11-04T06:33:59.865Z,62.33
2022-11-04T06:34:59.834Z,61.20
2022-11-04T06:35:59.827Z,59.83
2022-11-04T06:36:59.827Z,60.99
2022-11-04T06:37:59.805Z,60.08
2022-11-04T06:39:04.344Z,60.40
2022-11-04T06:40:00.776Z,60.65
2022-11-04T06:40:59.810Z,60.61
2022-11-04T06:42:02.705Z,59.75
2022-11-04T06:42:59.797Z,59.22
2022-11-04T06:43:59.754Z,59.75
2022-11-04T06:44:59.733Z,58.52
2022-11-04T06:45:59.744Z,59.71
2022-11-04T06:46:59.713Z,59.38
2022-11-04T06:47:59.722Z,59.71
2022-11-04T06:48:59.691Z,70.38
2022-11-04T06:49:59.694Z,60.65
2022-11-04T06:50:59.675Z,60.17
2022-11-04T06:51:59.681Z,66.71
2022-11-04T06:52:59.665Z,60.05
2022-11-04T06:53:59.631Z,60.71
2022-11-04T06:54:59.659Z,58.39
2022-11-04T06:55:59.690Z,57.19
2022-11-04T06:56:59.652Z,59.60
2022-11-04T06:57:59.595Z,57.87
2022-11-04T06:58:59.592Z,58.74
2022-11-04T06:59:59.604Z,59.11
2022-11-04T07:00:59.579Z,60.80
2022-11-04T07:02:00.698Z,64.67
2022-11-04T07:02:59.542Z,65.30
2022-11-04T07:03:59.537Z,60.63
2022-11-04T07:04:59.558Z,58.96
2022-11-04T07:05:59.518Z,58.24
2022-11-04T07:06:59.598Z,60.44
2022-11-04T07:07:59.493Z,66.87
2022-11-04T07:08:59.492Z,57.73
2022-11-04T07:09:59.575Z,60.27
2022-11-04T07:10:59.463Z,55.35
2022-11-04T07:11:59.455Z,59.94
2022-11-04T07:12:59.443Z,58.44
2022-11-04T07:14:00.456Z,66.00
2022-11-04T07:14:59.421Z,60.05
2022-11-04T07:15:59.495Z,59.49
2022-11-04T07:16:59.426Z,60.80
2022-11-04T07:17:59.394Z,60.64
2022-11-04T07:18:59.388Z,59.67
2022-11-04T07:19:59.436Z,59.39
2022-11-04T07:20:59.425Z,59.96
2022-11-04T07:21:59.383Z,61.67
2022-11-04T07:22:59.343Z,60.79
2022-11-04T07:23:59.364Z,59.61
2022-11-04T07:24:59.361Z,59.61
2022-11-04T07:25:59.320Z,60.78
2022-11-04T07:26:59.320Z,59.19
2022-11-04T07:28:02.122Z,61.56
2022-11-04T07:29:00.303Z,60.51
2022-11-04T07:29:59.352Z,59.39
2022-11-04T07:30:59.383Z,57.21
2022-11-04T07:31:59.255Z,57.38
2022-11-04T07:32:59.331Z,58.64
2022-11-04T07:33:59.240Z,55.43
2022-11-04T07:34:59.244Z,58.19
2022-11-04T07:35:59.257Z,59.94
2022-11-04T07:36:59.210Z,67.18
2022-11-04T07:37:59.219Z,59.63
2022-11-04T07:38:59.194Z,58.75
2022-11-04T07:39:59.181Z,60.49
2022-11-04T07:40:59.167Z,60.54
2022-11-04T07:41:59.773Z,60.01
2022-11-04T07:42:59.182Z,62.36
2022-11-04T07:43:59.148Z,59.88
2022-11-04T07:44:59.134Z,61.14
2022-11-04T07:45:59.115Z,59.36
2022-11-04T07:46:59.114Z,57.07
2022-11-04T07:47:59.086Z,60.20
2022-11-04T07:48:59.136Z,59.54
2022-11-04T07:49:59.122Z,60.77
2022-11-04T07:50:59.069Z,64.26
2022-11-04T07:51:59.057Z,61.61
2022-11-04T07:52:59.082Z,60.05
2022-11-04T07:53:59.067Z,68.96
2022-11-04T07:54:59.034Z,59.82
2022-11-04T07:55:59.006Z,61.94
2022-11-04T07:56:58.994Z,64.04
2022-11-04T07:57:58.986Z,67.42
2022-11-04T07:58:59.001Z,56.99
2022-11-04T07:59:59.003Z,59.03
2022-11-04T08:00:58.957Z,64.25
2022-11-04T08:01:59.143Z,56.92
2022-11-04T08:02:59.003Z,57.89
2022-11-04T08:03:58.935Z,57.98
2022-11-04T08:04:58.932Z,62.74
2022-11-04T08:05:58.909Z,59.53
2022-11-04T08:06:58.903Z,63.18
2022-11-04T08:07:58.889Z,59.87
2022-11-04T08:08:58.993Z,59.05
2022-11-04T08:09:58.861Z,59.18
2022-11-04T08:10:58.854Z,59.01
2022-11-04T08:11:58.860Z,60.11
2022-11-04T08:12:58.864Z,59.74
2022-11-04T08:13:58.874Z,61.55
2022-11-04T08:14:58.884Z,59.19
2022-11-04T08:15:58.811Z,61.78
2022-11-04T08:16:58.805Z,59.52
2022-11-04T08:17:58.807Z,64.87
2022-11-04T08:18:58.804Z,58.19
2022-11-04T08:19:58.778Z,60.62
2022-11-04T08:20:58.765Z,60.01
2022-11-04T08:21:58.752Z,59.15
2022-11-04T08:22:58.740Z,63.40
2022-11-04T08:23:58.748Z,59.34
2022-11-04T08:24:58.744Z,60.39
2022-11-04T08:25:58.815Z,60.80
2022-11-04T08:26:58.703Z,66.26
2022-11-04T08:28:01.105Z,59.36
2022-11-04T08:28:58.696Z,60.28
2022-11-04T08:29:58.690Z,58.72
2022-11-04T08:31:00.553Z,66.99
2022-11-04T08:32:24.571Z,60.30
2022-11-04T08:32:58.687Z,59.64
2022-11-04T08:33:58.684Z,62.39
2022-11-04T08:34:58.647Z,57.56
2022-11-04T08:35:58.657Z,60.75
2022-11-04T08:36:58.625Z,60.57
2022-11-04T08:37:58.605Z,59.91
2022-11-04T08:38:58.592Z,60.38
2022-11-04T08:39:58.586Z,59.84
2022-11-04T08:41:00.087Z,58.62
2022-11-04T08:41:58.599Z,59.95
2022-11-04T08:42:58.560Z,58.01
2022-11-04T08:43:58.552Z,60.53
2022-11-04T08:44:58.552Z,58.57
2022-11-04T08:45:58.546Z,58.04
2022-11-04T08:46:58.539Z,59.41
2022-11-04T08:48:04.176Z,59.08
2022-11-04T08:49:01.167Z,60.45
2022-11-04T08:49:58.500Z,60.46
2022-11-04T08:50:58.490Z,57.45
2022-11-04T08:51:58.471Z,60.21
2022-11-04T08:52:58.492Z,59.73
2022-11-04T08:53:58.448Z,58.31
2022-11-04T08:54:58.463Z,64.01
2022-11-04T08:55:58.429Z,58.86
2022-11-04T08:56:58.427Z,60.06
2022-11-04T08:57:58.470Z,58.68
2022-11-04T08:58:58.411Z,59.49
2022-11-04T08:59:58.403Z,58.88
2022-11-04T09:00:58.374Z,62.49
2022-11-04T09:01:58.497Z,65.67
2022-11-04T09:02:58.359Z,59.68
2022-11-04T09:03:58.395Z,57.02
2022-11-04T09:04:58.351Z,58.66
2022-11-04T09:05:58.332Z,59.49
2022-11-04T09:06:58.332Z,57.24
2022-11-04T09:07:58.315Z,57.35
2022-11-04T09:08:58.366Z,58.11
2022-11-04T09:09:58.347Z,59.05
2022-11-04T09:10:58.310Z,59.39
2022-11-04T09:11:58.271Z,58.89
2022-11-04T09:12:58.256Z,58.10
2022-11-04T09:13:58.255Z,57.04
2022-11-04T09:14:58.289Z,57.11
2022-11-04T09:15:58.286Z,56.66
2022-11-04T09:16:58.231Z,60.37
2022-11-04T09:17:58.218Z,56.22
2022-11-04T09:18:58.205Z,58.13
2022-11-04T09:19:58.218Z,56.46
2022-11-04T09:20:58.369Z,57.79
2022-11-04T09:21:58.190Z,58.06
2022-11-04T09:22:58.160Z,57.43
2022-11-04T09:23:58.170Z,63.04
2022-11-04T09:24:58.160Z,65.81
2022-11-04T09:25:58.130Z,59.59
2022-11-04T09:26:58.127Z,59.64
2022-11-04T09:27:58.134Z,58.42
2022-11-04T09:28:58.294Z,58.71
2022-11-04T09:29:59.112Z,57.40
2022-11-04T09:30:58.102Z,60.45
2022-11-04T09:31:58.074Z,58.20
2022-11-04T09:32:58.066Z,57.09
2022-11-04T09:33:58.053Z,58.78
2022-11-04T09:34:58.068Z,56.82
2022-11-04T09:35:58.058Z,59.71
2022-11-04T09:36:58.108Z,58.89
2022-11-04T09:37:58.017Z,57.75
2022-11-04T09:38:58.000Z,55.77
2022-11-04T09:39:57.999Z,58.12
2022-11-04T09:40:58.008Z,59.53
2022-11-04T09:41:58.036Z,58.84
2022-11-04T09:42:57.986Z,59.93
2022-11-04T09:43:58.003Z,58.25
2022-11-04T09:45:20.666Z,57.91
2022-11-04T09:46:00.035Z,64.84
2022-11-04T09:46:57.918Z,56.77
2022-11-04T09:47:57.911Z,58.74
2022-11-04T09:48:57.910Z,57.07
2022-11-04T09:49:58.021Z,61.02
2022-11-04T09:50:57.898Z,62.69
2022-11-04T09:51:57.875Z,60.53
2022-11-04T09:52:57.930Z,59.19
2022-11-04T09:53:57.888Z,59.93
2022-11-04T09:54:57.846Z,57.67
2022-11-04T09:55:57.847Z,61.25
2022-11-04T09:56:57.838Z,59.61
2022-11-04T09:57:57.897Z,57.23
2022-11-04T09:58:57.812Z,57.80
2022-11-04T09:59:57.788Z,62.52
2022-11-04T10:00:57.848Z,59.42
2022-11-04T10:01:57.896Z,57.67
2022-11-04T10:02:57.803Z,57.93
2022-11-04T10:03:57.819Z,58.59
2022-11-04T10:04:57.741Z,65.50
2022-11-04T10:05:57.745Z,58.56
2022-11-04T10:06:57.720Z,59.21
2022-11-04T10:07:57.749Z,57.17
2022-11-04T10:08:57.818Z,58.06
2022-11-04T10:09:57.704Z,57.02
2022-11-04T10:10:57.700Z,60.26
2022-11-04T10:11:57.688Z,60.99
2022-11-04T10:12:57.660Z,58.00
2022-11-04T10:13:57.671Z,65.51
2022-11-04T10:14:57.639Z,56.69
2022-11-04T10:15:57.633Z,59.53
2022-11-04T10:16:57.690Z,55.59
2022-11-04T10:17:57.633Z,61.55
2022-11-04T10:18:57.603Z,56.69
2022-11-04T10:19:57.673Z,57.17
2022-11-04T10:20:57.644Z,58.18
2022-11-04T10:21:57.603Z,66.65
2022-11-04T10:22:57.582Z,57.58
2022-11-04T10:23:57.541Z,57.00
2022-11-04T10:24:57.633Z,56.79
2022-11-04T10:25:57.599Z,59.58
2022-11-04T10:27:00.375Z,63.89
2022-11-04T10:27:57.519Z,57.93
2022-11-04T10:28:57.554Z,57.27
2022-11-04T10:29:57.568Z,58.02
2022-11-04T10:30:57.560Z,58.84
2022-11-04T10:31:57.482Z,57.72
2022-11-04T10:32:57.484Z,57.31
2022-11-04T10:33:57.511Z,59.51
2022-11-04T10:34:57.489Z,58.94
2022-11-04T10:35:57.491Z,58.79
2022-11-04T10:36:57.466Z,60.17
2022-11-04T10:37:57.474Z,62.46
2022-11-04T10:38:57.418Z,56.36
2022-11-04T10:39:57.434Z,60.78
2022-11-04T10:40:58.317Z,58.95
2022-11-04T10:41:57.390Z,58.24
2022-11-04T10:42:57.409Z,59.15
2022-11-04T10:43:57.368Z,59.04
2022-11-04T10:44:57.380Z,57.34
2022-11-04T10:45:57.391Z,60.93
2022-11-04T10:46:57.344Z,60.03
2022-11-04T10:47:57.362Z,65.36
2022-11-04T10:48:57.325Z,60.08
2022-11-04T10:50:28.855Z,59.19
2022-11-04T10:50:59.343Z,61.92
2022-11-04T10:51:57.300Z,58.30
2022-11-04T10:52:57.284Z,57.97
2022-11-04T10:53:57.388Z,58.18
2022-11-04T10:54:57.283Z,58.48
2022-11-04T10:55:57.277Z,63.75
2022-11-04T10:56:57.337Z,58.60
2022-11-04T10:57:57.245Z,57.34
2022-11-04T10:58:57.224Z,55.15
2022-11-04T10:59:57.248Z,59.16
2022-11-04T11:00:57.271Z,57.94
2022-11-04T11:01:57.352Z,59.97
2022-11-04T11:02:57.179Z,58.02
2022-11-04T11:03:57.166Z,58.75
2022-11-04T11:04:57.156Z,58.43
2022-11-04T11:05:57.180Z,58.90
2022-11-04T11:06:57.151Z,61.43
2022-11-04T11:07:57.142Z,58.68
2022-11-04T11:08:57.117Z,59.26
2022-11-04T11:09:57.131Z,62.44
2022-11-04T11:10:57.097Z,57.93
2022-11-04T11:11:57.108Z,59.52
2022-11-04T11:12:57.078Z,60.13
2022-11-04T11:13:57.089Z,59.92
2022-11-04T11:14:57.115Z,57.96
2022-11-04T11:15:57.045Z,59.75
2022-11-04T11:16:57.049Z,60.39
2022-11-04T11:17:57.026Z,60.64
2022-11-04T11:18:58.017Z,58.61
2022-11-04T11:19:57.026Z,59.22
2022-11-04T11:20:57.047Z,60.87
2022-11-04T11:21:57.050Z,59.92
2022-11-04T11:23:01.937Z,58.36
2022-11-04T11:23:59.059Z,59.23
2022-11-04T11:24:56.950Z,57.83
2022-11-04T11:25:56.989Z,57.29
2022-11-04T11:26:56.930Z,58.28
2022-11-04T11:27:56.973Z,59.43
2022-11-04T11:28:59.346Z,59.42
2022-11-04T11:29:57.971Z,60.22
2022-11-04T11:30:56.899Z,58.42
2022-11-04T11:31:56.894Z,58.49
2022-11-04T11:32:56.878Z,66.46
2022-11-04T11:33:56.897Z,59.85
2022-11-04T11:34:56.891Z,58.66
2022-11-04T11:35:56.854Z,56.82
2022-11-04T11:36:56.846Z,56.28
2022-11-04T11:37:56.859Z,56.38
2022-11-04T11:38:56.854Z,56.96
2022-11-04T11:39:56.810Z,60.47
2022-11-04T11:41:23.438Z,58.42
2022-11-04T11:41:58.787Z,59.20
2022-11-04T11:42:56.907Z,63.44
2022-11-04T11:43:56.808Z,57.25
2022-11-04T11:44:56.784Z,59.92
2022-11-04T11:45:56.778Z,58.26
2022-11-04T11:46:56.777Z,62.88
2022-11-04T11:47:56.724Z,57.31
2022-11-04T11:48:56.745Z,57.25
2022-11-04T11:49:56.698Z,57.32
2022-11-04T11:50:56.701Z,59.09
2022-11-04T11:51:56.773Z,65.07
2022-11-04T11:52:57.647Z,58.09
2022-11-04T11:53:56.667Z,57.70
2022-11-04T11:54:56.697Z,63.96
2022-11-04T11:55:56.676Z,57.74
2022-11-04T11:57:13.297Z,57.83
2022-11-04T12:01:03.518Z,59.75
2022-11-04T12:01:57.673Z,60.46
2022-11-04T12:02:57.133Z,59.46
2022-11-04T12:09:57.510Z,57.26
2022-11-04T12:10:56.497Z,57.45
2022-11-04T12:11:56.487Z,69.61
2022-11-04T12:12:56.483Z,59.06
2022-11-04T12:13:56.513Z,60.26
2022-11-04T12:14:56.462Z,59.39
2022-11-04T12:15:56.465Z,58.62
2022-11-04T12:16:56.448Z,60.59
2022-11-04T12:17:56.430Z,60.42
2022-11-04T12:18:56.461Z,58.57
2022-11-04T12:19:56.407Z,58.28
2022-11-04T12:20:56.434Z,57.26
2022-11-04T12:21:56.383Z,57.50
2022-11-04T12:22:56.416Z,60.28
2022-11-04T12:23:56.369Z,63.88
2022-11-04T12:24:56.372Z,58.77
2022-11-04T12:25:56.361Z,59.18
2022-11-04T12:26:56.333Z,59.69
2022-11-04T12:27:56.323Z,57.42
2022-11-04T12:28:56.320Z,59.14
2022-11-04T12:29:56.311Z,60.52
2022-11-04T12:30:56.322Z,58.98
2022-11-04T12:31:56.292Z,61.04
2022-11-04T12:32:56.275Z,60.61
2022-11-04T12:33:56.286Z,59.66
2022-11-04T12:34:56.292Z,59.02
2022-11-04T12:35:56.383Z,60.32
2022-11-04T12:36:56.218Z,57.97
2022-11-04T12:37:56.222Z,57.58
2022-11-04T12:38:56.240Z,57.64
2022-11-04T12:39:56.199Z,58.06
2022-11-04T12:41:27.781Z,57.70
2022-11-04T12:42:58.171Z,60.64
2022-11-04T12:43:56.188Z,60.57
2022-11-04T12:44:56.190Z,57.53
2022-11-04T12:45:56.190Z,61.80
2022-11-04T12:46:56.121Z,57.59
2022-11-04T12:47:57.150Z,58.64
2022-11-04T12:48:59.026Z,62.36
2022-11-04T12:49:57.107Z,58.54
2022-11-04T12:50:56.095Z,58.62
2022-11-04T12:51:56.149Z,57.78
2022-11-04T12:52:56.085Z,67.59
2022-11-04T12:53:56.062Z,58.53
2022-11-04T12:54:56.064Z,59.26
2022-11-04T12:55:56.122Z,58.72
2022-11-04T12:56:56.035Z,62.96
2022-11-04T12:57:56.016Z,56.15
2022-11-04T12:58:56.155Z,58.46
2022-11-04T12:59:56.018Z,57.68
2022-11-04T13:00:59.441Z,57.51
2022-11-04T13:01:57.090Z,56.44
2022-11-04T13:02:55.959Z,59.59